sensor_id;sensor_type;location;lat;lon;timestamp;temperature;humidity
21518;DHT22;61765;45.794;24.150;2024-03-23T00:54:58;11.80;70.20
21518;DHT22;61765;45.794;24.150;2024-03-23T01:03:00;11.60;70.20
21518;DHT22;61765;45.794;24.150;2024-03-23T01:11:05;11.30;71.30
21518;DHT22;61765;45.794;24.150;2024-03-23T01:19:07;11.10;72.00
21518;DHT22;61765;45.794;24.150;2024-03-23T01:27:12;11.20;71.60
21518;DHT22;61765;45.794;24.150;2024-03-23T01:35:14;11.10;71.40
21518;DHT22;61765;45.794;24.150;2024-03-23T01:43:18;11.00;71.40
21518;DHT22;61765;45.794;24.150;2024-03-23T01:51:21;11.10;71.80
21518;DHT22;61765;45.794;24.150;2024-03-23T01:59:25;10.80;72.70
21518;DHT22;61765;45.794;24.150;2024-03-23T02:07:27;11.10;72.20
21518;DHT22;61765;45.794;24.150;2024-03-23T02:15:32;11.10;71.60
21518;DHT22;61765;45.794;24.150;2024-03-23T02:23:37;10.60;72.60
21518;DHT22;61765;45.794;24.150;2024-03-23T02:31:38;10.40;72.80
21518;DHT22;61765;45.794;24.150;2024-03-23T02:39:43;10.80;72.70
21518;DHT22;61765;45.794;24.150;2024-03-23T02:47:45;10.10;74.30
21518;DHT22;61765;45.794;24.150;2024-03-23T02:55:50;9.80;75.60
21518;DHT22;61765;45.794;24.150;2024-03-23T03:03:52;10.00;75.00
21518;DHT22;61765;45.794;24.150;2024-03-23T03:11:56;10.20;74.20
21518;DHT22;61765;45.794;24.150;2024-03-23T03:19:58;10.40;73.80
21518;DHT22;61765;45.794;24.150;2024-03-23T03:28:03;10.50;73.70
21518;DHT22;61765;45.794;24.150;2024-03-23T03:36:06;10.60;73.80
21518;DHT22;61765;45.794;24.150;2024-03-23T03:44:10;10.70;72.80
21518;DHT22;61765;45.794;24.150;2024-03-23T03:52:12;10.40;73.70
21518;DHT22;61765;45.794;24.150;2024-03-23T04:00:18;10.40;73.70
21518;DHT22;61765;45.794;24.150;2024-03-23T04:08:20;10.50;73.40
21518;DHT22;61765;45.794;24.150;2024-03-23T04:16:28;10.10;74.50
21518;DHT22;61765;45.794;24.150;2024-03-23T04:24:30;9.80;75.80
21518;DHT22;61765;45.794;24.150;2024-03-23T04:32:35;10.10;75.70
21518;DHT22;61765;45.794;24.150;2024-03-23T04:40:37;10.20;74.80
21518;DHT22;61765;45.794;24.150;2024-03-23T04:48:41;9.90;75.70
21518;DHT22;61765;45.794;24.150;2024-03-23T04:56:46;10.00;75.10
21518;DHT22;61765;45.794;24.150;2024-03-23T05:04:50;10.10;75.70
21518;DHT22;61765;45.794;24.150;2024-03-23T05:12:52;10.10;75.20
21518;DHT22;61765;45.794;24.150;2024-03-23T05:20:59;10.20;74.90
21518;DHT22;61765;45.794;24.150;2024-03-23T05:29:01;10.70;74.30
21518;DHT22;61765;45.794;24.150;2024-03-23T05:37:05;10.70;73.60
21518;DHT22;61765;45.794;24.150;2024-03-23T05:45:08;11.00;73.80
21518;DHT22;61765;45.794;24.150;2024-03-23T05:53:14;11.30;71.80
21518;DHT22;61765;45.794;24.150;2024-03-23T06:01:16;11.40;72.20
21518;DHT22;61765;45.794;24.150;2024-03-23T06:09:20;11.80;71.20
21518;DHT22;61765;45.794;24.150;2024-03-23T06:17:22;12.30;69.40
21518;DHT22;61765;45.794;24.150;2024-03-23T06:25:27;11.80;70.80
21518;DHT22;61765;45.794;24.150;2024-03-23T06:33:29;12.00;71.90
21518;DHT22;61765;45.794;24.150;2024-03-23T06:41:34;12.80;70.30
21518;DHT22;61765;45.794;24.150;2024-03-23T06:49:35;13.40;68.90
21518;DHT22;61765;45.794;24.150;2024-03-23T06:57:40;13.20;69.50
21518;DHT22;61765;45.794;24.150;2024-03-23T07:05:42;13.50;68.70
21518;DHT22;61765;45.794;24.150;2024-03-23T07:13:49;13.90;68.60
21518;DHT22;61765;45.794;24.150;2024-03-23T07:21:51;14.00;68.50
21518;DHT22;61765;45.794;24.150;2024-03-23T07:29:55;14.20;69.50
21518;DHT22;61765;45.794;24.150;2024-03-23T07:37:57;15.40;66.70
21518;DHT22;61765;45.794;24.150;2024-03-23T07:46:02;15.70;65.20
21518;DHT22;61765;45.794;24.150;2024-03-23T07:54:05;16.30;64.70
21518;DHT22;61765;45.794;24.150;2024-03-23T08:02:10;17.00;61.30
21518;DHT22;61765;45.794;24.150;2024-03-23T08:10:12;16.80;63.00
21518;DHT22;61765;45.794;24.150;2024-03-23T08:18:17;17.50;60.00
21518;DHT22;61765;45.794;24.150;2024-03-23T08:26:19;17.70;60.60
21518;DHT22;61765;45.794;24.150;2024-03-23T08:34:23;18.00;60.50
21518;DHT22;61765;45.794;24.150;2024-03-23T08:42:25;18.40;59.40
21518;DHT22;61765;45.794;24.150;2024-03-23T08:50:30;19.10;58.10
21518;DHT22;61765;45.794;24.150;2024-03-23T08:58:32;19.90;57.50
21518;DHT22;61765;45.794;24.150;2024-03-23T09:06:37;20.60;56.50
21518;DHT22;61765;45.794;24.150;2024-03-23T09:14:39;21.40;54.50
21518;DHT22;61765;45.794;24.150;2024-03-23T09:22:44;21.60;55.00
21518;DHT22;61765;45.794;24.150;2024-03-23T09:30:46;21.60;53.60
21518;DHT22;61765;45.794;24.150;2024-03-23T09:38:50;22.70;53.10
21518;DHT22;61765;45.794;24.150;2024-03-23T09:46:52;24.00;51.00
21518;DHT22;61765;45.794;24.150;2024-03-23T09:54:57;24.60;50.60
21518;DHT22;61765;45.794;24.150;2024-03-23T10:02:59;25.50;50.00
21518;DHT22;61765;45.794;24.150;2024-03-23T10:11:16;26.30;49.20
21518;DHT22;61765;45.794;24.150;2024-03-23T10:19:30;28.90;47.00
21518;DHT22;61765;45.794;24.150;2024-03-23T10:27:35;36.40;39.90
21518;DHT22;61765;45.794;24.150;2024-03-23T10:35:38;40.50;32.40
21518;DHT22;61765;45.794;24.150;2024-03-23T10:43:43;44.20;31.40
21518;DHT22;61765;45.794;24.150;2024-03-23T10:51:46;46.50;28.90
21518;DHT22;61765;45.794;24.150;2024-03-23T10:59:51;46.90;28.70
21518;DHT22;61765;45.794;24.150;2024-03-23T11:07:54;49.30;27.80
21518;DHT22;61765;45.794;24.150;2024-03-23T11:16:13;50.30;27.20
21518;DHT22;61765;45.794;24.150;2024-03-23T11:24:15;52.00;26.40
21518;DHT22;61765;45.794;24.150;2024-03-23T11:32:20;53.20;25.70
21518;DHT22;61765;45.794;24.150;2024-03-23T11:40:24;49.20;25.90
21518;DHT22;61765;45.794;24.150;2024-03-23T11:48:29;49.10;27.20
21518;DHT22;61765;45.794;24.150;2024-03-23T11:56:31;52.30;25.80
21518;DHT22;61765;45.794;24.150;2024-03-23T12:04:37;53.00;25.60
21518;DHT22;61765;45.794;24.150;2024-03-23T12:12:39;54.20;25.00
21518;DHT22;61765;45.794;24.150;2024-03-23T12:20:44;51.30;24.70
21518;DHT22;61765;45.794;24.150;2024-03-23T12:28:46;42.60;27.30
21518;DHT22;61765;45.794;24.150;2024-03-23T12:36:50;33.70;32.90
21518;DHT22;61765;45.794;24.150;2024-03-23T12:44:52;29.60;38.70
21518;DHT22;61765;45.794;24.150;2024-03-23T12:52:57;27.90;41.60
21518;DHT22;61765;45.794;24.150;2024-03-23T13:00:59;27.20;42.80
21518;DHT22;61765;45.794;24.150;2024-03-23T13:09:04;26.20;43.60
21518;DHT22;61765;45.794;24.150;2024-03-23T13:17:07;25.60;45.20
21518;DHT22;61765;45.794;24.150;2024-03-23T13:25:11;24.30;47.10
21518;DHT22;61765;45.794;24.150;2024-03-23T13:33:13;24.20;47.10
21518;DHT22;61765;45.794;24.150;2024-03-23T13:41:18;24.40;47.10
21518;DHT22;61765;45.794;24.150;2024-03-23T13:49:25;24.10;48.80
21518;DHT22;61765;45.794;24.150;2024-03-23T13:57:31;23.50;49.90
21518;DHT22;61765;45.794;24.150;2024-03-23T14:05:33;23.50;49.80
21518;DHT22;61765;45.794;24.150;2024-03-23T14:13:37;23.70;50.30
21518;DHT22;61765;45.794;24.150;2024-03-23T14:21:39;23.70;49.40
21518;DHT22;61765;45.794;24.150;2024-03-23T14:29:45;23.60;49.50
21518;DHT22;61765;45.794;24.150;2024-03-23T14:37:48;23.60;49.80
21518;DHT22;61765;45.794;24.150;2024-03-23T14:46:08;23.60;49.70
21518;DHT22;61765;45.794;24.150;2024-03-23T14:54:10;23.40;50.30
21518;DHT22;61765;45.794;24.150;2024-03-23T15:02:15;23.40;50.40
21518;DHT22;61765;45.794;24.150;2024-03-23T15:10:17;23.10;51.80
21518;DHT22;61765;45.794;24.150;2024-03-23T15:18:21;23.00;51.70
21518;DHT22;61765;45.794;24.150;2024-03-23T15:26:27;22.80;51.90
21518;DHT22;61765;45.794;24.150;2024-03-23T15:34:32;22.70;52.30
21518;DHT22;61765;45.794;24.150;2024-03-23T15:42:34;22.50;52.70
21518;DHT22;61765;45.794;24.150;2024-03-23T15:50:38;22.40;53.00
21518;DHT22;61765;45.794;24.150;2024-03-23T15:58:40;22.20;53.40
21518;DHT22;61765;45.794;24.150;2024-03-23T16:06:45;22.00;52.80
21518;DHT22;61765;45.794;24.150;2024-03-23T16:14:47;21.90;53.20
21518;DHT22;61765;45.794;24.150;2024-03-23T16:22:52;21.70;53.10
21518;DHT22;61765;45.794;24.150;2024-03-23T16:30:58;21.60;53.30
21518;DHT22;61765;45.794;24.150;2024-03-23T16:39:03;21.40;53.60
21518;DHT22;61765;45.794;24.150;2024-03-23T16:47:05;21.20;54.20
21518;DHT22;61765;45.794;24.150;2024-03-23T16:55:10;21.00;54.40
21518;DHT22;61765;45.794;24.150;2024-03-23T17:03:12;20.80;54.50
21518;DHT22;61765;45.794;24.150;2024-03-23T17:11:16;20.50;55.00
21518;DHT22;61765;45.794;24.150;2024-03-23T17:19:18;20.30;55.30
21518;DHT22;61765;45.794;24.150;2024-03-23T17:27:23;20.20;55.70
21518;DHT22;61765;45.794;24.150;2024-03-23T17:35:25;20.30;56.10
21518;DHT22;61765;45.794;24.150;2024-03-23T17:43:32;20.10;56.50
21518;DHT22;61765;45.794;24.150;2024-03-23T17:51:35;19.90;57.50
21518;DHT22;61765;45.794;24.150;2024-03-23T17:59:40;20.00;56.70
21518;DHT22;61765;45.794;24.150;2024-03-23T18:07:43;19.70;56.40
21518;DHT22;61765;45.794;24.150;2024-03-23T18:15:55;19.60;56.40
21518;DHT22;61765;45.794;24.150;2024-03-23T18:23:57;19.50;58.00
21518;DHT22;61765;45.794;24.150;2024-03-23T18:32:02;19.30;59.30
21518;DHT22;61765;45.794;24.150;2024-03-23T18:40:05;18.90;61.20
21518;DHT22;61765;45.794;24.150;2024-03-23T18:48:10;18.80;62.30
21518;DHT22;61765;45.794;24.150;2024-03-23T18:56:12;18.60;63.40
21518;DHT22;61765;45.794;24.150;2024-03-23T19:04:17;18.30;63.30
21518;DHT22;61765;45.794;24.150;2024-03-23T19:12:19;18.20;64.00
21518;DHT22;61765;45.794;24.150;2024-03-23T19:20:24;18.00;64.80
21518;DHT22;61765;45.794;24.150;2024-03-23T19:28:27;17.90;64.90
21518;DHT22;61765;45.794;24.150;2024-03-23T19:36:33;17.80;65.10
21518;DHT22;61765;45.794;24.150;2024-03-23T19:44:35;18.00;65.40
21518;DHT22;61765;45.794;24.150;2024-03-23T19:52:40;17.70;65.80
21518;DHT22;61765;45.794;24.150;2024-03-23T20:00:42;17.70;66.40
21518;DHT22;61765;45.794;24.150;2024-03-23T20:08:46;17.50;66.60
21518;DHT22;61765;45.794;24.150;2024-03-23T20:16:48;17.40;67.10
21518;DHT22;61765;45.794;24.150;2024-03-23T20:24:53;17.30;67.40
21518;DHT22;61765;45.794;24.150;2024-03-23T20:32:55;17.30;67.50
21518;DHT22;61765;45.794;24.150;2024-03-23T20:41:00;17.10;68.20
21518;DHT22;61765;45.794;24.150;2024-03-23T20:49:02;17.30;68.70
21518;DHT22;61765;45.794;24.150;2024-03-23T20:57:07;17.10;68.80
21518;DHT22;61765;45.794;24.150;2024-03-23T21:05:09;16.90;69.10
21518;DHT22;61765;45.794;24.150;2024-03-23T21:13:13;16.70;69.70
21518;DHT22;61765;45.794;24.150;2024-03-23T21:21:16;16.60;69.60
21518;DHT22;61765;45.794;24.150;2024-03-23T21:29:20;16.60;69.60
21518;DHT22;61765;45.794;24.150;2024-03-23T21:37:22;16.60;69.60
21518;DHT22;61765;45.794;24.150;2024-03-23T21:45:27;16.50;69.30
21518;DHT22;61765;45.794;24.150;2024-03-23T21:53:29;16.40;69.40
21518;DHT22;61765;45.794;24.150;2024-03-23T22:01:34;16.40;69.00
21518;DHT22;61765;45.794;24.150;2024-03-23T22:09:36;16.30;69.70
21518;DHT22;61765;45.794;24.150;2024-03-23T22:17:40;16.40;69.50
21518;DHT22;61765;45.794;24.150;2024-03-23T22:25:48;16.40;68.30
21518;DHT22;61765;45.794;24.150;2024-03-23T22:33:52;16.40;67.80
21518;DHT22;61765;45.794;24.150;2024-03-23T22:41:54;15.90;68.80
21518;DHT22;61765;45.794;24.150;2024-03-23T22:49:59;16.10;68.30
21518;DHT22;61765;45.794;24.150;2024-03-23T22:58:01;15.80;69.00
21518;DHT22;61765;45.794;24.150;2024-03-23T23:06:06;15.80;69.20
21518;DHT22;61765;45.794;24.150;2024-03-23T23:14:08;15.70;68.80
21518;DHT22;61765;45.794;24.150;2024-03-23T23:22:12;15.70;68.50
21518;DHT22;61765;45.794;24.150;2024-03-23T23:30:14;15.90;68.30
21518;DHT22;61765;45.794;24.150;2024-03-23T23:38:19;15.90;67.20
21518;DHT22;61765;45.794;24.150;2024-03-23T23:46:21;15.90;67.00
21518;DHT22;61765;45.794;24.150;2024-03-23T23:54:26;16.00;67.10
